Time;durP1;ratioP1;P1;durP2;ratioP2;P2;SDS_P1;SDS_P2;PMS_P1;PMS_P2;Temp;Humidity;BMP_temperature;BMP_pressure;BME280_temperature;BME280_humidity;BME280_pressure;Samples;Min_cycle;Max_cycle;Signal;HPM_P1;HPM_P2
2021/01/17 04:15:21;;;;;;;6.93;1.48;;;-10.40;99.90;;;;;;4955118;29;20138;-68
2021/01/17 04:17:47;;;;;;;1.42;1.38;;;-10.40;99.90;;;;;;4956813;29;20031;-68
2021/01/17 04:20:13;;;;;;;1.13;1.13;;;-10.40;99.90;;;;;;4956877;29;20074;-69
2021/01/17 04:22:39;;;;;;;1.25;1.20;;;-10.40;99.90;;;;;;4956939;29;20070;-68
2021/01/17 04:25:06;;;;;;;1.30;1.30;;;-10.40;99.90;;;;;;4957041;29;20106;-68
2021/01/17 04:27:32;;;;;;;1.40;1.30;;;-10.50;99.90;;;;;;4956770;28;20038;-68
2021/01/17 04:29:58;;;;;;;1.30;1.25;;;-10.40;99.90;;;;;;4956938;29;20082;-68
2021/01/17 04:32:24;;;;;;;1.10;1.10;;;-10.40;99.90;;;;;;4956680;29;20019;-69
2021/01/17 04:34:51;;;;;;;1.50;1.40;;;-10.40;99.90;;;;;;4956586;29;20463;-69
2021/01/17 04:37:23;;;;;;;1.58;1.48;;;-10.40;99.90;;;;;;4956689;29;20027;-69
2021/01/17 04:39:50;;;;;;;1.48;1.30;;;-10.50;99.90;;;;;;4956542;29;20019;-69
2021/01/17 04:42:18;;;;;;;2.25;1.60;;;-10.50;99.90;;;;;;4956418;29;20035;-68
2021/01/17 04:45:01;;;;;;;1.10;1.10;;;-10.50;99.90;;;;;;4956579;29;20027;-68
2021/01/17 04:47:28;;;;;;;1.30;1.30;;;-10.50;99.90;;;;;;4956679;29;20622;-68
2021/01/17 04:50:00;;;;;;;1.60;1.50;;;-10.50;99.90;;;;;;4955532;28;20067;-68
2021/01/17 04:52:29;;;;;;;1.30;1.30;;;-10.50;99.90;;;;;;4956308;29;20035;-70
2021/01/17 04:54:57;;;;;;;1.30;1.30;;;-10.50;99.90;;;;;;4956157;29;20387;-68
2021/01/17 04:57:56;;;;;;;1.30;1.30;;;-10.50;99.90;;;;;;4956177;29;20054;-68
2021/01/17 05:00:30;;;;;;;1.42;1.33;;;-10.50;99.90;;;;;;4956315;28;20031;-68
2021/01/17 05:03:13;;;;;;;1.77;1.63;;;-10.50;99.90;;;;;;4956105;29;20054;-69
2021/01/17 05:05:47;;;;;;;1.50;1.40;;;-10.50;99.90;;;;;;4956123;29;20023;-69
2021/01/17 05:08:24;;;;;;;1.40;1.40;;;-10.50;99.90;;;;;;4955928;29;20059;-69
2021/01/17 05:10:58;;;;;;;1.20;1.20;;;-10.60;99.90;;;;;;4956052;29;20027;-69
2021/01/17 05:13:30;;;;;;;1.50;1.40;;;-10.60;99.90;;;;;;4956198;29;20118;-68
2021/01/17 05:15:57;;;;;;;1.33;1.33;;;-10.60;99.90;;;;;;4955803;29;20443;-69
2021/01/17 05:18:23;;;;;;;1.55;1.45;;;-10.60;99.90;;;;;;4955921;29;20047;-70
2021/01/17 05:20:56;;;;;;;1.27;1.27;;;-10.70;99.90;;;;;;4955854;29;20440;-71
2021/01/17 05:23:22;;;;;;;1.60;1.50;;;-10.70;99.90;;;;;;4955736;29;20063;-70
2021/01/17 05:25:49;;;;;;;1.35;1.35;;;-10.70;99.90;;;;;;4955831;29;20019;-70
2021/01/17 05:28:15;;;;;;;1.25;1.25;;;-10.70;99.90;;;;;;4955455;29;20031;-69
2021/01/17 05:30:47;;;;;;;1.30;1.30;;;-10.70;99.90;;;;;;4955643;29;20034;-69
2021/01/17 05:33:18;;;;;;;1.40;1.30;;;-10.70;99.90;;;;;;4955407;29;20408;-69
2021/01/17 05:35:44;;;;;;;1.63;1.50;;;-10.70;99.90;;;;;;4955865;29;20054;-73
2021/01/17 05:38:13;;;;;;;1.30;1.30;;;-10.80;99.90;;;;;;4955267;29;20397;-72
2021/01/17 05:40:39;;;;;;;1.30;1.30;;;-10.80;99.90;;;;;;4955504;29;20027;-75
2021/01/17 05:43:08;;;;;;;1.30;1.30;;;-10.60;99.90;;;;;;4955423;29;20090;-71
2021/01/17 05:45:34;;;;;;;1.30;1.30;;;-10.10;99.90;;;;;;4955373;28;20027;-69
2021/01/17 05:48:01;;;;;;;1.70;1.60;;;-10.20;99.90;;;;;;4955067;28;20035;-70
2021/01/17 05:50:29;;;;;;;1.42;1.33;;;-10.40;99.90;;;;;;4955281;28;20154;-68
2021/01/17 05:52:56;;;;;;;2.13;1.60;;;-10.50;99.90;;;;;;4954963;29;20416;-70
2021/01/17 05:55:28;;;;;;;3.90;2.03;;;-10.60;99.90;;;;;;4954742;29;20023;-68
2021/01/17 05:57:54;;;;;;;2.25;2.05;;;-10.70;99.90;;;;;;4954502;29;20023;-70
2021/01/17 06:00:33;;;;;;;3.33;2.25;;;-10.60;99.90;;;;;;4953841;28;20377;-70
2021/01/17 06:02:59;;;;;;;1.50;1.38;;;-10.60;99.90;;;;;;4954177;29;20406;-70
2021/01/17 06:05:26;;;;;;;2.22;2.08;;;-10.60;99.90;;;;;;4954788;29;20071;-71
2021/01/17 06:07:54;;;;;;;1.83;1.73;;;-10.60;99.90;;;;;;4953672;29;20475;-71
2021/01/17 06:10:26;;;;;;;1.77;1.67;;;-10.60;99.90;;;;;;4954167;29;20019;-71
2021/01/17 06:12:52;;;;;;;1.60;1.50;;;-10.60;99.90;;;;;;4954393;28;20375;-68
2021/01/17 06:15:18;;;;;;;1.30;1.30;;;-10.50;99.90;;;;;;4953951;29;20048;-68
2021/01/17 06:17:46;;;;;;;1.45;1.35;;;-10.50;99.90;;;;;;4954125;29;20035;-69
2021/01/17 06:20:24;;;;;;;1.70;1.60;;;-10.50;99.90;;;;;;4954038;29;20106;-69
2021/01/17 06:22:57;;;;;;;1.70;1.60;;;-10.50;99.90;;;;;;4954104;29;20058;-69
2021/01/17 06:25:33;;;;;;;1.58;1.48;;;-10.50;99.90;;;;;;4954379;29;20062;-69
2021/01/17 06:28:38;;;;;;;1.20;1.20;;;-10.50;99.90;;;;;;4954476;29;20062;-68
2021/01/17 06:31:06;;;;;;;1.40;1.30;;;-10.50;99.90;;;;;;4950996;29;20042;-69
2021/01/17 06:33:33;;;;;;;1.50;1.40;;;-10.60;99.90;;;;;;4954399;29;20051;-69
2021/01/17 06:36:13;;;;;;;2.33;2.13;;;-10.70;99.90;;;;;;4954641;29;20031;-71
2021/01/17 06:38:39;;;;;;;4.30;2.45;;;-10.80;99.90;;;;;;4954347;29;20023;-66
2021/01/17 06:41:05;;;;;;;7.20;3.58;;;-10.80;99.90;;;;;;4953876;28;20038;-68
2021/01/17 06:43:31;;;;;;;9.60;4.03;;;-10.50;99.90;;;;;;4954231;29;20495;-68
2021/01/17 06:45:58;;;;;;;3.67;2.20;;;-10.60;99.90;;;;;;4953947;29;20034;-68
2021/01/17 06:48:27;;;;;;;2.15;1.90;;;-10.70;99.90;;;;;;4953989;29;20035;-68
2021/01/17 06:50:53;;;;;;;2.33;1.77;;;-10.70;99.90;;;;;;4954444;28;20027;-70
2021/01/17 06:53:25;;;;;;;1.90;1.80;;;-10.80;99.90;;;;;;4954290;29;20027;-67
2021/01/17 06:56:16;;;;;;;1.73;1.42;;;-10.80;99.90;;;;;;4954435;28;20027;-78
2021/01/17 06:58:45;;;;;;;1.52;1.42;;;-10.80;99.90;;;;;;4954461;28;20027;-72
2021/01/17 07:01:10;;;;;;;1.42;1.42;;;-10.80;99.90;;;;;;4953876;29;20041;-72
2021/01/17 07:04:15;;;;;;;1.45;1.35;;;-10.90;99.70;;;;;;4954038;29;20102;-72
2021/01/17 07:07:05;;;;;;;1.63;1.52;;;-10.90;99.90;;;;;;4954327;29;20027;-72
2021/01/17 07:09:48;;;;;;;1.10;1.10;;;-10.90;99.90;;;;;;4953882;28;20027;-84
2021/01/17 07:12:39;;;;;;;2.58;1.63;;;-10.60;99.90;;;;;;4953520;28;20149;-77
2021/01/17 07:15:06;;;;;;;1.65;1.35;;;-9.80;99.90;;;;;;4953738;28;20526;-74
2021/01/17 07:17:40;;;;;;;1.55;1.45;;;-9.80;99.90;;;;;;4954128;29;20050;-72
2021/01/17 07:20:12;;;;;;;1.45;1.35;;;-10.10;99.90;;;;;;4952759;29;20038;-72
2021/01/17 07:22:38;;;;;;;2.00;1.38;;;-10.40;99.90;;;;;;4953875;29;20483;-70
2021/01/17 07:25:08;;;;;;;1.38;1.35;;;-10.60;99.90;;;;;;4953922;29;20163;-71
2021/01/17 07:28:03;;;;;;;1.70;1.60;;;-10.70;99.90;;;;;;4954237;28;20071;-77
2021/01/17 07:31:06;;;;;;;1.50;1.40;;;-10.70;99.90;;;;;;4953951;29;20139;-74
2021/01/17 07:33:39;;;;;;;1.40;1.30;;;-10.80;99.90;;;;;;4953561;28;20019;-73
2021/01/17 07:36:12;;;;;;;1.65;1.55;;;-10.80;99.90;;;;;;4953838;28;20027;-76
2021/01/17 07:38:45;;;;;;;1.60;1.50;;;-10.90;99.80;;;;;;4953829;29;20020;-71
2021/01/17 07:41:12;;;;;;;1.63;1.52;;;-10.90;99.90;;;;;;4953520;29;20668;-72
2021/01/17 07:43:43;;;;;;;1.67;1.58;;;-10.90;99.90;;;;;;4953584;29;20484;-72
2021/01/17 07:46:10;;;;;;;1.33;1.33;;;-10.90;99.90;;;;;;4953488;29;20083;-72
2021/01/17 07:48:38;;;;;;;1.60;1.50;;;-10.90;99.90;;;;;;4953598;29;20042;-72
2021/01/17 07:51:07;;;;;;;1.77;1.60;;;-10.90;99.90;;;;;;4953840;29;20023;-72
2021/01/17 07:53:39;;;;;;;1.40;1.30;;;-10.90;99.90;;;;;;4953629;29;20517;-73
2021/01/17 07:56:17;;;;;;;1.58;1.48;;;-10.90;99.80;;;;;;4953536;29;20027;-81
2021/01/17 07:58:50;;;;;;;1.30;1.20;;;-10.80;99.90;;;;;;4953560;28;20483;-80
2021/01/17 08:01:31;;;;;;;1.58;1.48;;;-10.80;99.70;;;;;;4953338;29;20044;-80
2021/01/17 08:04:06;;;;;;;1.42;1.33;;;-10.80;99.70;;;;;;4952228;29;20030;-82
2021/01/17 08:06:35;;;;;;;1.70;1.50;;;-10.90;99.40;;;;;;4953580;29;20498;-78
2021/01/17 08:09:14;;;;;;;1.55;1.45;;;-10.90;99.30;;;;;;4953361;29;20023;-81
2021/01/17 08:11:47;;;;;;;1.45;1.35;;;-10.90;99.60;;;;;;4953431;29;20023;-79
2021/01/17 08:14:36;;;;;;;1.50;1.40;;;-10.90;99.80;;;;;;4953100;29;20043;-72
2021/01/17 08:17:15;;;;;;;1.45;1.42;;;-10.90;99.20;;;;;;4953354;29;20031;-72
2021/01/17 08:19:56;;;;;;;1.58;1.48;;;-11.00;99.30;;;;;;4953208;29;20114;-73
2021/01/17 08:22:22;;;;;;;1.48;1.38;;;-11.00;99.00;;;;;;4953167;28;20451;-73
2021/01/17 08:24:51;;;;;;;1.55;1.45;;;-11.00;98.80;;;;;;4955799;29;20053;-73
2021/01/17 08:27:32;;;;;;;1.40;1.30;;;-11.00;99.50;;;;;;4956594;29;20043;-73
2021/01/17 08:30:03;;;;;;;1.60;1.50;;;-11.00;99.90;;;;;;4949913;29;20024;-74
2021/01/17 08:32:30;;;;;;;2.20;1.73;;;-11.00;99.90;;;;;;4955482;28;20031;-73
2021/01/17 08:34:56;;;;;;;1.70;1.50;;;-11.00;99.90;;;;;;4956373;28;20570;-74
2021/01/17 08:37:22;;;;;;;1.50;1.40;;;-11.00;99.90;;;;;;4955898;29;20110;-74
2021/01/17 08:39:51;;;;;;;1.40;1.30;;;-10.90;99.90;;;;;;4955955;29;20020;-75
2021/01/17 08:42:33;;;;;;;1.70;1.60;;;-10.90;99.90;;;;;;4956130;29;20045;-74
2021/01/17 08:45:01;;;;;;;1.50;1.40;;;-10.90;99.90;;;;;;4954681;29;20031;-74
2021/01/17 08:47:27;;;;;;;1.67;1.58;;;-10.90;99.90;;;;;;4956020;28;20033;-74
2021/01/17 08:49:53;;;;;;;1.90;1.63;;;-10.90;99.90;;;;;;4956301;29;20023;-74
2021/01/17 08:52:34;;;;;;;2.20;1.38;;;-10.90;99.90;;;;;;4956144;28;20031;-77
2021/01/17 08:55:00;;;;;;;1.60;1.50;;;-10.90;99.90;;;;;;4956355;29;20501;-73
2021/01/17 08:57:42;;;;;;;2.78;1.25;;;-11.00;99.90;;;;;;4955981;29;20035;-73
2021/01/17 09:00:15;;;;;;;1.70;1.60;;;-10.90;99.90;;;;;;4955860;29;20102;-73
2021/01/17 09:02:41;;;;;;;1.45;1.35;;;-10.90;99.90;;;;;;4955687;29;20034;-73
2021/01/17 09:05:18;;;;;;;1.52;1.42;;;-10.90;99.90;;;;;;4955833;29;20019;-73
2021/01/17 09:07:46;;;;;;;2.15;1.50;;;-10.80;99.90;;;;;;4955782;28;20030;-73
2021/01/17 09:10:16;;;;;;;1.27;1.27;;;-10.80;99.90;;;;;;4955492;29;20030;-74
2021/01/17 09:12:42;;;;;;;1.45;1.42;;;-10.80;99.90;;;;;;4955560;29;20518;-73
2021/01/17 09:15:19;;;;;;;2.05;1.48;;;-10.80;99.90;;;;;;4954013;29;20117;-73
2021/01/17 09:18:00;;;;;;;2.38;2.17;;;-10.80;99.90;;;;;;4955063;29;20019;-73
2021/01/17 09:20:27;;;;;;;1.75;1.65;;;-10.80;99.90;;;;;;4942679;29;20474;-74
2021/01/17 09:22:55;;;;;;;1.65;1.40;;;-10.80;99.90;;;;;;4954805;29;20045;-76
2021/01/17 09:25:22;;;;;;;2.78;2.22;;;-10.70;99.90;;;;;;4954584;29;20027;-81
2021/01/17 09:27:50;;;;;;;1.63;1.52;;;-10.70;99.90;;;;;;4954909;29;20027;-76
2021/01/17 09:30:16;;;;;;;2.10;1.48;;;-10.50;99.90;;;;;;4955388;29;20514;-73
2021/01/17 09:32:43;;;;;;;1.60;1.50;;;-10.50;99.90;;;;;;4955591;28;20483;-79
2021/01/17 09:35:09;;;;;;;2.10;1.38;;;-10.50;99.90;;;;;;4955537;28;20023;-79
2021/01/17 09:37:35;;;;;;;1.48;1.40;;;-10.50;99.90;;;;;;4955509;29;20040;-78
2021/01/17 09:40:03;;;;;;;1.50;1.40;;;-10.50;99.90;;;;;;4955056;29;20023;-72
2021/01/17 09:42:30;;;;;;;1.67;1.58;;;-9.90;99.90;;;;;;4955531;29;20121;-78
2021/01/17 09:45:01;;;;;;;2.80;1.75;;;-9.90;99.90;;;;;;4955379;29;20143;-78
2021/01/17 09:47:29;;;;;;;1.95;1.77;;;-10.10;99.90;;;;;;4955110;29;20427;-79
2021/01/17 09:49:55;;;;;;;2.67;2.13;;;-10.10;99.90;;;;;;4954438;29;20027;-78
2021/01/17 09:52:26;;;;;;;2.90;2.15;;;-9.80;99.90;;;;;;4954702;29;20026;-76
2021/01/17 09:54:55;;;;;;;1.90;1.80;;;-9.80;99.90;;;;;;4954269;29;20387;-77
2021/01/17 09:57:22;;;;;;;3.10;2.33;;;-10.00;99.90;;;;;;4954104;29;20050;-76
2021/01/17 09:59:52;;;;;;;5.45;3.50;;;-10.10;99.90;;;;;;4954119;29;20038;-76
2021/01/17 10:02:23;;;;;;;6.37;2.50;;;-10.10;99.90;;;;;;4954414;29;20063;-75
2021/01/17 10:04:49;;;;;;;2.15;1.92;;;-10.20;99.90;;;;;;4954641;29;20030;-77
2021/01/17 10:07:23;;;;;;;1.65;1.55;;;-10.20;99.90;;;;;;4954382;29;20023;-73
2021/01/17 10:09:50;;;;;;;2.90;1.63;;;-10.20;99.90;;;;;;4953960;28;20031;-74
2021/01/17 10:12:20;;;;;;;1.98;1.83;;;-10.20;99.90;;;;;;4956577;29;20035;-72
2021/01/17 10:14:46;;;;;;;2.00;1.73;;;-10.20;99.90;;;;;;4953829;29;20049;-74
2021/01/17 10:17:12;;;;;;;1.45;1.40;;;-10.20;99.90;;;;;;4954850;29;20085;-74
2021/01/17 10:19:39;;;;;;;1.60;1.50;;;-10.20;99.90;;;;;;4955025;29;20023;-74
2021/01/17 10:22:09;;;;;;;1.58;1.48;;;-10.10;99.90;;;;;;4954587;29;20118;-74
2021/01/17 10:24:36;;;;;;;1.70;1.60;;;-10.10;99.90;;;;;;4953385;29;20024;-78
2021/01/17 10:27:04;;;;;;;1.40;1.30;;;-10.10;99.90;;;;;;4954623;29;20028;-73
2021/01/17 10:29:37;;;;;;;1.38;1.30;;;-10.20;99.90;;;;;;4954421;28;20510;-73
2021/01/17 10:32:05;;;;;;;1.20;1.20;;;-10.10;99.90;;;;;;4954600;29;20502;-73
2021/01/17 10:34:34;;;;;;;1.63;1.52;;;-10.10;99.90;;;;;;4954374;29;20023;-73
2021/01/17 10:37:03;;;;;;;1.48;1.35;;;-10.10;99.90;;;;;;4954555;29;20027;-73
2021/01/17 10:39:31;;;;;;;1.92;1.77;;;-10.10;99.90;;;;;;4954283;29;20023;-72
2021/01/17 10:42:09;;;;;;;2.17;1.58;;;-10.10;99.90;;;;;;4954343;29;20038;-73
2021/01/17 10:44:49;;;;;;;3.40;1.60;;;-10.10;99.90;;;;;;4954374;29;20026;-73
2021/01/17 10:48:06;;;;;;;1.77;1.67;;;-10.00;99.90;;;;;;4952496;28;20501;-73
2021/01/17 10:50:41;;;;;;;1.50;1.40;;;-10.00;99.90;;;;;;4921783;28;20483;-74
2021/01/17 10:53:32;;;;;;;1.23;1.23;;;-9.90;99.90;;;;;;4954317;29;20427;-74
2021/01/17 10:55:59;;;;;;;2.22;2.03;;;-9.90;99.90;;;;;;4953968;29;20037;-73
2021/01/17 10:58:35;;;;;;;1.80;1.70;;;-9.80;99.90;;;;;;4953488;29;20038;-73
2021/01/17 11:01:01;;;;;;;2.80;1.45;;;-9.80;99.90;;;;;;4953482;29;20023;-73
2021/01/17 11:03:56;;;;;;;2.03;1.80;;;-9.80;99.90;;;;;;4953204;29;20069;-74
2021/01/17 11:06:27;;;;;;;1.45;1.35;;;-9.70;99.90;;;;;;4952626;29;20118;-74
2021/01/17 11:08:58;;;;;;;1.55;1.45;;;-9.70;99.90;;;;;;4953701;29;20107;-73
2021/01/17 11:11:29;;;;;;;1.58;1.48;;;-9.70;99.90;;;;;;4953809;29;20038;-74
2021/01/17 11:14:03;;;;;;;2.22;1.45;;;-9.60;99.90;;;;;;4954054;29;20037;-75
2021/01/17 11:16:34;;;;;;;1.70;1.60;;;-9.40;99.90;;;;;;4953899;29;20031;-74
2021/01/17 11:19:00;;;;;;;1.40;1.30;;;-9.30;99.90;;;;;;4953864;29;20031;-75
2021/01/17 11:21:29;;;;;;;1.42;1.33;;;-9.40;99.90;;;;;;4953685;29;20373;-77
2021/01/17 11:23:55;;;;;;;2.03;1.63;;;-9.50;99.90;;;;;;4952112;29;20027;-75
2021/01/17 11:26:25;;;;;;;1.80;1.30;;;-9.50;99.90;;;;;;4953613;29;20487;-74
2021/01/17 11:28:55;;;;;;;1.50;1.40;;;-9.50;99.90;;;;;;4953782;29;20589;-74
2021/01/17 11:31:22;;;;;;;;;;;-9.50;99.90;;;;;;4954307;29;20082;-75
2021/01/17 11:33:48;;;;;;;1.98;1.50;;;-9.50;99.90;;;;;;4953991;28;19906;-74
2021/01/17 11:36:28;;;;;;;1.60;1.50;;;-9.50;99.90;;;;;;4953743;29;20031;-75
2021/01/17 11:38:57;;;;;;;1.50;1.40;;;-9.50;99.90;;;;;;4953872;29;20094;-75
2021/01/17 11:41:34;;;;;;;4.95;1.63;;;-9.50;99.90;;;;;;4953708;29;20510;-75
2021/01/17 11:44:14;;;;;;;1.48;1.38;;;-9.50;99.90;;;;;;4953702;28;20027;-75
2021/01/17 11:46:41;;;;;;;2.38;1.60;;;-9.50;99.90;;;;;;4952621;29;20434;-73
2021/01/17 11:49:07;;;;;;;2.35;2.08;;;-9.50;99.90;;;;;;4953814;28;20063;-74
2021/01/17 11:51:34;;;;;;;2.58;1.73;;;-9.50;99.90;;;;;;4953618;29;20035;-72
2021/01/17 11:54:21;;;;;;;3.53;2.00;;;-9.50;99.90;;;;;;4953615;29;20480;-71
2021/01/17 11:56:48;;;;;;;1.40;1.30;;;-9.30;99.90;;;;;;4953368;29;20038;-72
2021/01/17 11:59:28;;;;;;;3.20;1.50;;;-8.80;99.90;;;;;;4956523;28;20452;-73
2021/01/17 12:01:54;;;;;;;1.70;1.60;;;-8.90;99.90;;;;;;4957436;29;20035;-70
2021/01/17 12:04:27;;;;;;;1.95;1.55;;;-9.10;99.90;;;;;;4960650;28;20027;-73
2021/01/17 12:07:04;;;;;;;2.22;1.90;;;-9.20;99.90;;;;;;4957983;28;20118;-73
2021/01/17 12:09:29;;;;;;;1.88;1.38;;;-9.30;99.90;;;;;;4955077;29;20024;-73
2021/01/17 12:11:55;;;;;;;1.67;1.58;;;-9.30;99.90;;;;;;4955771;28;20030;-73
2021/01/17 12:14:22;;;;;;;1.60;1.50;;;-9.40;99.90;;;;;;4956349;28;20503;-73
2021/01/17 12:16:56;;;;;;;1.88;1.60;;;-9.40;99.90;;;;;;4956769;29;20027;-73
2021/01/17 12:19:24;;;;;;;2.58;1.60;;;-9.40;99.80;;;;;;4956300;28;20030;-72
2021/01/17 12:21:54;;;;;;;1.92;1.60;;;-9.40;99.90;;;;;;4955910;29;20049;-73
2021/01/17 12:24:20;;;;;;;3.17;1.95;;;-9.40;99.80;;;;;;4956532;29;20016;-72
2021/01/17 12:26:46;;;;;;;1.73;1.63;;;-9.40;99.80;;;;;;4956654;29;20052;-74
2021/01/17 12:29:13;;;;;;;1.70;1.60;;;-9.50;99.70;;;;;;4954034;29;20546;-74
2021/01/17 12:31:40;;;;;;;1.67;1.58;;;-9.50;99.70;;;;;;4955553;28;20019;-72
2021/01/17 12:34:07;;;;;;;2.25;1.90;;;-8.80;99.90;;;;;;4956544;29;20027;-72
2021/01/17 12:36:33;;;;;;;1.85;1.38;;;-8.70;99.90;;;;;;4956307;28;20036;-71
2021/01/17 12:39:02;;;;;;;2.35;1.80;;;-8.90;99.90;;;;;;4971183;28;20078;-73
2021/01/17 12:41:30;;;;;;;2.13;1.60;;;-8.70;99.90;;;;;;4955738;29;20046;-74
2021/01/17 12:43:57;;;;;;;1.70;1.60;;;-8.70;99.90;;;;;;4956248;28;20023;-73
2021/01/17 12:46:24;;;;;;;1.80;1.70;;;-9.00;99.90;;;;;;4956196;28;20518;-73
2021/01/17 12:48:50;;;;;;;1.83;1.35;;;-9.10;99.90;;;;;;4956151;28;20035;-73
2021/01/17 12:51:16;;;;;;;2.30;1.60;;;-9.30;99.90;;;;;;4954432;29;20023;-73
2021/01/17 12:53:44;;;;;;;3.47;1.80;;;-9.40;99.90;;;;;;4956104;28;20038;-73
2021/01/17 12:56:10;;;;;;;1.60;1.48;;;-9.40;99.90;;;;;;4956127;28;20158;-74
2021/01/17 12:58:37;;;;;;;1.77;1.50;;;-9.50;99.90;;;;;;4955882;28;20051;-73
2021/01/17 13:01:04;;;;;;;2.45;1.73;;;-9.50;99.90;;;;;;4970557;28;20028;-73
2021/01/17 13:03:30;;;;;;;1.60;1.50;;;-9.50;99.90;;;;;;4955152;29;20027;-73
2021/01/17 13:05:56;;;;;;;1.55;1.45;;;-9.20;99.90;;;;;;4956531;29;20051;-75
2021/01/17 13:08:22;;;;;;;1.80;1.70;;;-8.10;99.90;;;;;;4956128;29;20428;-74
2021/01/17 13:10:49;;;;;;;2.42;1.55;;;-8.50;99.90;;;;;;4956745;28;20027;-75
2021/01/17 13:13:15;;;;;;;1.77;1.42;;;-8.80;99.90;;;;;;4955772;29;20061;-77
2021/01/17 13:15:51;;;;;;;2.58;1.60;;;-9.10;99.90;;;;;;4955791;29;20106;-75
2021/01/17 13:18:17;;;;;;;1.67;1.50;;;-9.30;99.90;;;;;;4955902;29;20031;-74
2021/01/17 13:20:44;;;;;;;1.63;1.52;;;-9.40;99.90;;;;;;4956145;29;20019;-76
2021/01/17 13:23:11;;;;;;;2.13;1.73;;;-9.40;99.90;;;;;;4955635;29;20031;-77
2021/01/17 13:25:38;;;;;;;1.80;1.70;;;-9.50;99.90;;;;;;4954970;28;20081;-76
2021/01/17 13:28:05;;;;;;;1.67;1.50;;;-9.60;99.90;;;;;;4955318;28;20030;-76
2021/01/17 13:30:31;;;;;;;2.15;2.00;;;-9.60;99.90;;;;;;4954980;28;20079;-75
2021/01/17 13:33:04;;;;;;;1.60;1.48;;;-9.60;99.90;;;;;;4955456;29;20356;-76
2021/01/17 13:35:31;;;;;;;3.38;1.58;;;-9.60;99.70;;;;;;4955060;29;20034;-77
2021/01/17 13:37:56;;;;;;;1.85;1.50;;;-9.70;99.50;;;;;;4955088;29;20027;-77
2021/01/17 13:40:22;;;;;;;2.38;1.70;;;-9.70;99.80;;;;;;4954735;29;20024;-76
2021/01/17 13:42:48;;;;;;;1.98;1.67;;;-9.70;99.70;;;;;;4954976;29;20043;-77
2021/01/17 13:45:14;;;;;;;2.35;1.80;;;-9.80;98.80;;;;;;4955197;29;20020;-75
2021/01/17 13:47:42;;;;;;;2.63;1.95;;;-9.80;99.40;;;;;;4954721;29;20031;-75
2021/01/17 13:50:09;;;;;;;2.08;1.63;;;-9.80;99.20;;;;;;4954884;29;20019;-74
2021/01/17 13:52:34;;;;;;;1.85;1.75;;;-9.80;99.10;;;;;;4954733;28;20063;-74
2021/01/17 13:55:00;;;;;;;2.13;1.90;;;-9.80;98.50;;;;;;4954756;29;20051;-77
2021/01/17 13:57:26;;;;;;;2.40;1.90;;;-9.80;98.60;;;;;;4954669;29;20030;-76
2021/01/17 13:59:53;;;;;;;2.92;1.83;;;-9.80;98.50;;;;;;4954602;28;20026;-75
2021/01/17 14:02:19;;;;;;;1.60;1.48;;;-9.80;98.00;;;;;;4954550;29;20066;-74
2021/01/17 14:04:45;;;;;;;2.00;1.63;;;-9.80;98.10;;;;;;4955002;29;20094;-74
2021/01/17 14:07:13;;;;;;;3.45;2.50;;;-9.80;98.00;;;;;;4955007;29;20054;-74
2021/01/17 14:09:39;;;;;;;3.00;2.03;;;-9.80;97.70;;;;;;4954553;29;20110;-74
2021/01/17 14:12:09;;;;;;;4.22;2.45;;;-9.90;97.60;;;;;;4954853;29;20030;-74
2021/01/17 14:14:39;;;;;;;16.67;5.40;;;-9.90;97.20;;;;;;4954567;29;20047;-74
2021/01/17 14:17:05;;;;;;;13.02;4.30;;;-10.00;97.50;;;;;;4954823;29;20483;-74
2021/01/17 14:19:32;;;;;;;4.38;2.38;;;-10.00;97.80;;;;;;4954689;29;20027;-74
2021/01/17 14:21:58;;;;;;;6.13;3.00;;;-9.90;97.70;;;;;;4953736;28;20046;-75
2021/01/17 14:24:24;;;;;;;2.53;2.10;;;-9.90;97.50;;;;;;4954577;29;20028;-74
2021/01/17 14:26:51;;;;;;;3.38;1.95;;;-9.90;97.00;;;;;;4954790;29;20027;-74
2021/01/17 14:29:17;;;;;;;2.70;2.10;;;-9.90;97.20;;;;;;4954639;28;20034;-74
2021/01/17 14:31:44;;;;;;;2.30;2.10;;;-9.90;96.70;;;;;;4954594;29;20492;-76
2021/01/17 14:34:11;;;;;;;2.17;1.90;;;-9.90;96.60;;;;;;4940008;29;20078;-77
2021/01/17 14:36:43;;;;;;;3.72;2.58;;;-10.00;95.60;;;;;;4954549;28;20066;-77
2021/01/17 14:39:11;;;;;;;4.70;2.33;;;-10.10;96.10;;;;;;4953126;29;20019;-77
2021/01/17 14:41:38;;;;;;;3.67;2.72;;;-10.10;96.20;;;;;;4952953;29;20040;-78
2021/01/17 14:44:05;;;;;;;3.95;2.58;;;-10.10;95.90;;;;;;4954280;29;20074;-78
2021/01/17 14:46:42;;;;;;;2.00;1.80;;;-10.20;96.30;;;;;;4953989;29;20622;-78
2021/01/17 14:49:11;;;;;;;2.10;1.90;;;-10.20;96.10;;;;;;4952297;29;20031;-78
2021/01/17 14:51:37;;;;;;;2.20;2.00;;;-10.20;95.60;;;;;;4951599;29;20068;-78
2021/01/17 14:54:04;;;;;;;1.83;1.65;;;-10.30;95.80;;;;;;4953466;29;20024;-78
2021/01/17 14:56:37;;;;;;;2.35;1.88;;;-10.30;95.90;;;;;;4953488;29;20039;-78
2021/01/17 14:59:03;;;;;;;3.70;2.90;;;-10.30;96.10;;;;;;4951851;29;20028;-77
2021/01/17 15:01:29;;;;;;;3.58;2.10;;;-10.30;96.30;;;;;;4953218;28;20039;-78
2021/01/17 15:03:55;;;;;;;2.28;2.03;;;-10.30;95.70;;;;;;4952666;29;20105;-78
2021/01/17 15:06:22;;;;;;;2.28;1.80;;;-10.30;95.40;;;;;;4953908;29;20027;-77
2021/01/17 15:08:48;;;;;;;1.88;1.77;;;-10.30;95.00;;;;;;4954252;29;20031;-78
2021/01/17 15:11:17;;;;;;;2.00;1.60;;;-10.30;94.60;;;;;;4953779;29;20035;-78
2021/01/17 15:13:48;;;;;;;2.17;1.42;;;-10.40;94.50;;;;;;4953865;29;20494;-78
2021/01/17 15:16:14;;;;;;;2.40;1.80;;;-10.40;94.40;;;;;;4954086;28;20035;-78
2021/01/17 15:18:41;;;;;;;2.08;1.88;;;-10.50;94.30;;;;;;4959136;29;20042;-78
2021/01/17 15:21:07;;;;;;;2.00;1.80;;;-10.50;94.50;;;;;;4955989;29;20027;-78
2021/01/17 15:23:33;;;;;;;2.10;1.90;;;-10.50;94.50;;;;;;4954060;28;20028;-78
2021/01/17 15:25:59;;;;;;;2.03;1.88;;;-10.60;94.10;;;;;;4953826;28;20034;-78
2021/01/17 15:28:25;;;;;;;2.25;1.90;;;-10.60;94.40;;;;;;4952751;28;20023;-79
2021/01/17 15:30:51;;;;;;;1.88;1.65;;;-10.60;94.10;;;;;;4953274;29;20493;-77
2021/01/17 15:33:17;;;;;;;1.70;1.60;;;-10.60;94.00;;;;;;4955605;28;20023;-77
2021/01/17 15:35:43;;;;;;;1.60;1.50;;;-10.70;93.90;;;;;;4957494;29;20435;-77
2021/01/17 15:38:09;;;;;;;2.55;1.90;;;-10.70;94.00;;;;;;4957742;28;20023;-77
2021/01/17 15:40:35;;;;;;;1.60;1.48;;;-10.70;94.10;;;;;;4957459;28;20464;-77
2021/01/17 15:43:01;;;;;;;1.90;1.80;;;-10.70;94.10;;;;;;4957511;28;20101;-77
2021/01/17 15:45:26;;;;;;;3.00;1.50;;;-10.70;93.70;;;;;;4957579;28;20107;-77
2021/01/17 15:47:52;;;;;;;1.60;1.50;;;-10.80;93.60;;;;;;4957501;28;20546;-77
2021/01/17 15:50:18;;;;;;;2.50;1.70;;;-10.80;93.40;;;;;;4957543;28;20024;-77
2021/01/17 15:52:44;;;;;;;1.60;1.50;;;-10.80;93.70;;;;;;4954832;28;20031;-75
2021/01/17 15:55:10;;;;;;;1.88;1.67;;;-10.80;93.60;;;;;;4957075;28;20030;-77
2021/01/17 15:57:36;;;;;;;1.60;1.40;;;-10.80;93.50;;;;;;4956904;28;20027;-76
2021/01/17 16:00:05;;;;;;;1.88;1.65;;;-10.90;93.20;;;;;;4954779;29;20023;-75
2021/01/17 16:02:34;;;;;;;2.00;1.77;;;-10.90;93.40;;;;;;4955640;29;20043;-74
2021/01/17 16:05:06;;;;;;;1.45;1.30;;;-10.90;93.50;;;;;;4955543;29;20019;-82
2021/01/17 16:07:32;;;;;;;1.98;1.80;;;-11.00;93.40;;;;;;4956217;28;20031;-83
2021/01/17 16:09:58;;;;;;;2.05;1.80;;;-11.00;93.30;;;;;;4956938;29;20071;-81
2021/01/17 16:12:24;;;;;;;1.63;1.52;;;-11.00;93.40;;;;;;4955578;29;20030;-82
2021/01/17 16:14:50;;;;;;;3.72;2.17;;;-11.00;92.90;;;;;;4956737;29;20047;-82
2021/01/17 16:17:16;;;;;;;2.38;1.98;;;-11.00;92.90;;;;;;4957151;29;20555;-82
2021/01/17 16:19:42;;;;;;;3.67;2.40;;;-11.10;93.20;;;;;;4956838;29;20054;-82
2021/01/17 16:22:07;;;;;;;2.40;1.90;;;-11.10;93.30;;;;;;4956787;29;20035;-82
2021/01/17 16:24:33;;;;;;;1.98;1.58;;;-11.10;93.20;;;;;;4956940;29;20089;-82
2021/01/17 16:27:00;;;;;;;1.65;1.55;;;-11.10;93.10;;;;;;4956879;29;20026;-82
2021/01/17 16:29:29;;;;;;;1.48;1.42;;;-11.20;92.30;;;;;;4956609;28;20521;-82
2021/01/17 16:31:56;;;;;;;1.92;1.60;;;-11.20;92.60;;;;;;4956835;29;20031;-78
2021/01/17 16:34:23;;;;;;;1.70;1.60;;;-11.30;93.10;;;;;;4954403;28;20039;-77
2021/01/17 16:37:00;;;;;;;1.77;1.67;;;-11.40;93.10;;;;;;4955249;28;20050;-78
2021/01/17 16:39:26;;;;;;;1.75;1.65;;;-11.40;93.30;;;;;;4956071;29;20133;-78
2021/01/17 16:42:00;;;;;;;1.58;1.48;;;-11.40;93.80;;;;;;4956442;28;20515;-76
2021/01/17 16:44:27;;;;;;;1.52;1.42;;;-11.40;93.70;;;;;;4955391;28;20235;-79
2021/01/17 16:46:53;;;;;;;1.85;1.60;;;-11.40;93.50;;;;;;4956782;28;20090;-79
2021/01/17 16:49:19;;;;;;;2.25;1.90;;;-11.50;93.70;;;;;;4956423;28;20079;-79
2021/01/17 16:51:45;;;;;;;3.17;2.50;;;-11.60;93.40;;;;;;4956446;28;20036;-78
2021/01/17 16:54:11;;;;;;;2.92;2.63;;;-11.60;93.70;;;;;;4956383;28;20028;-78
2021/01/17 16:56:38;;;;;;;2.67;2.45;;;-11.60;93.80;;;;;;4956302;28;20027;-77
2021/01/17 16:59:03;;;;;;;4.72;2.97;;;-11.60;94.00;;;;;;4956310;28;20035;-77
2021/01/17 17:01:44;;;;;;;6.57;3.10;;;-11.60;93.50;;;;;;4955973;28;20046;-76
2021/01/17 17:04:12;;;;;;;4.85;2.63;;;-11.60;93.30;;;;;;4956258;28;20400;-76
2021/01/17 17:06:38;;;;;;;2.55;1.98;;;-11.70;93.30;;;;;;4955998;28;20027;-74
2021/01/17 17:09:05;;;;;;;2.67;1.83;;;-11.60;96.10;;;;;;4964842;28;20587;-76